sensor_id;sensor_type;location;lat;lon;timestamp;P1;durP1;ratioP1;P2;durP2;ratioP2
55879;SDS011;41802;51.564;-1.838;2024-03-02T00:00:18;5.93;;;0.40;;
55879;SDS011;41802;51.564;-1.838;2024-03-02T00:02:47;2.28;;;0.40;;
55879;SDS011;41802;51.564;-1.838;2024-03-02T00:05:14;3.13;;;0.40;;
55879;SDS011;41802;51.564;-1.838;2024-03-02T00:07:41;4.25;;;0.35;;
55879;SDS011;41802;51.564;-1.838;2024-03-02T00:10:09;2.23;;;0.30;;
55879;SDS011;41802;51.564;-1.838;2024-03-02T00:12:37;4.85;;;0.30;;
55879;SDS011;41802;51.564;-1.838;2024-03-02T00:15:04;4.10;;;0.32;;
55879;SDS011;41802;51.564;-1.838;2024-03-02T00:17:35;5.13;;;0.32;;
55879;SDS011;41802;51.564;-1.838;2024-03-02T00:20:03;2.85;;;0.47;;
55879;SDS011;41802;51.564;-1.838;2024-03-02T00:22:34;2.30;;;0.20;;
55879;SDS011;41802;51.564;-1.838;2024-03-02T00:25:02;2.72;;;0.47;;
55879;SDS011;41802;51.564;-1.838;2024-03-02T00:27:29;4.00;;;0.40;;
55879;SDS011;41802;51.564;-1.838;2024-03-02T00:29:56;3.63;;;0.30;;
55879;SDS011;41802;51.564;-1.838;2024-03-02T00:32:22;4.97;;;0.60;;
55879;SDS011;41802;51.564;-1.838;2024-03-02T00:34:50;2.30;;;0.20;;
55879;SDS011;41802;51.564;-1.838;2024-03-02T00:37:18;4.32;;;0.32;;
55879;SDS011;41802;51.564;-1.838;2024-03-02T00:39:45;2.75;;;0.32;;
55879;SDS011;41802;51.564;-1.838;2024-03-02T00:42:15;3.97;;;0.43;;
55879;SDS011;41802;51.564;-1.838;2024-03-02T00:44:41;4.13;;;0.30;;
55879;SDS011;41802;51.564;-1.838;2024-03-02T00:47:08;3.37;;;0.20;;
55879;SDS011;41802;51.564;-1.838;2024-03-02T00:49:34;2.47;;;0.20;;
55879;SDS011;41802;51.564;-1.838;2024-03-02T00:52:01;4.30;;;0.38;;
55879;SDS011;41802;51.564;-1.838;2024-03-02T00:54:28;4.32;;;0.40;;
55879;SDS011;41802;51.564;-1.838;2024-03-02T00:56:58;3.92;;;0.35;;
55879;SDS011;41802;51.564;-1.838;2024-03-02T00:59:24;4.90;;;0.43;;
55879;SDS011;41802;51.564;-1.838;2024-03-02T01:01:51;6.95;;;0.55;;
55879;SDS011;41802;51.564;-1.838;2024-03-02T01:04:18;4.07;;;0.60;;
55879;SDS011;41802;51.564;-1.838;2024-03-02T01:06:45;4.65;;;0.30;;
55879;SDS011;41802;51.564;-1.838;2024-03-02T01:09:11;3.47;;;0.43;;
55879;SDS011;41802;51.564;-1.838;2024-03-02T01:11:40;5.00;;;0.50;;
55879;SDS011;41802;51.564;-1.838;2024-03-02T01:14:06;5.18;;;0.50;;
55879;SDS011;41802;51.564;-1.838;2024-03-02T01:16:33;2.30;;;0.20;;
55879;SDS011;41802;51.564;-1.838;2024-03-02T01:18:59;6.03;;;0.22;;
55879;SDS011;41802;51.564;-1.838;2024-03-02T01:21:26;3.25;;;0.20;;
55879;SDS011;41802;51.564;-1.838;2024-03-02T01:23:52;4.40;;;0.40;;
55879;SDS011;41802;51.564;-1.838;2024-03-02T01:26:18;4.85;;;0.57;;
55879;SDS011;41802;51.564;-1.838;2024-03-02T01:28:47;2.88;;;0.40;;
55879;SDS011;41802;51.564;-1.838;2024-03-02T01:31:13;5.45;;;0.50;;
55879;SDS011;41802;51.564;-1.838;2024-03-02T01:33:40;4.15;;;0.70;;
55879;SDS011;41802;51.564;-1.838;2024-03-02T01:36:06;4.40;;;0.50;;
55879;SDS011;41802;51.564;-1.838;2024-03-02T01:38:33;6.90;;;1.00;;
55879;SDS011;41802;51.564;-1.838;2024-03-02T01:41:00;3.55;;;0.82;;
55879;SDS011;41802;51.564;-1.838;2024-03-02T01:43:27;4.47;;;0.50;;
55879;SDS011;41802;51.564;-1.838;2024-03-02T01:45:55;4.82;;;0.57;;
55879;SDS011;41802;51.564;-1.838;2024-03-02T01:48:22;5.30;;;0.80;;
55879;SDS011;41802;51.564;-1.838;2024-03-02T01:50:49;7.10;;;1.10;;
55879;SDS011;41802;51.564;-1.838;2024-03-02T01:53:15;4.63;;;0.80;;
55879;SDS011;41802;51.564;-1.838;2024-03-02T01:55:42;8.10;;;0.90;;
55879;SDS011;41802;51.564;-1.838;2024-03-02T01:58:08;6.55;;;0.93;;
55879;SDS011;41802;51.564;-1.838;2024-03-02T02:00:35;8.57;;;0.70;;
55879;SDS011;41802;51.564;-1.838;2024-03-02T02:03:03;4.28;;;0.57;;
55879;SDS011;41802;51.564;-1.838;2024-03-02T02:05:30;5.80;;;0.90;;
55879;SDS011;41802;51.564;-1.838;2024-03-02T02:07:57;5.60;;;0.85;;
55879;SDS011;41802;51.564;-1.838;2024-03-02T02:10:24;7.50;;;0.70;;
55879;SDS011;41802;51.564;-1.838;2024-03-02T02:12:51;4.30;;;0.60;;
55879;SDS011;41802;51.564;-1.838;2024-03-02T02:15:24;5.45;;;0.85;;
55879;SDS011;41802;51.564;-1.838;2024-03-02T02:17:51;4.03;;;0.60;;
55879;SDS011;41802;51.564;-1.838;2024-03-02T02:20:19;6.65;;;0.70;;
55879;SDS011;41802;51.564;-1.838;2024-03-02T02:22:56;6.28;;;0.40;;
55879;SDS011;41802;51.564;-1.838;2024-03-02T02:25:23;6.23;;;0.40;;
55879;SDS011;41802;51.564;-1.838;2024-03-02T02:27:49;6.43;;;0.43;;
55879;SDS011;41802;51.564;-1.838;2024-03-02T02:30:18;2.85;;;0.20;;
55879;SDS011;41802;51.564;-1.838;2024-03-02T02:32:46;3.70;;;0.38;;
55879;SDS011;41802;51.564;-1.838;2024-03-02T02:35:13;4.68;;;0.28;;
55879;SDS011;41802;51.564;-1.838;2024-03-02T02:37:40;4.13;;;0.27;;
55879;SDS011;41802;51.564;-1.838;2024-03-02T02:40:08;5.80;;;0.30;;
55879;SDS011;41802;51.564;-1.838;2024-03-02T02:42:35;3.63;;;0.30;;
55879;SDS011;41802;51.564;-1.838;2024-03-02T02:45:02;3.88;;;0.30;;
55879;SDS011;41802;51.564;-1.838;2024-03-02T02:47:29;5.68;;;0.45;;
55879;SDS011;41802;51.564;-1.838;2024-03-02T02:49:55;6.37;;;0.47;;
55879;SDS011;41802;51.564;-1.838;2024-03-02T02:52:22;3.53;;;0.35;;
55879;SDS011;41802;51.564;-1.838;2024-03-02T02:54:48;7.50;;;0.50;;
55879;SDS011;41802;51.564;-1.838;2024-03-02T02:57:16;5.50;;;0.50;;
55879;SDS011;41802;51.564;-1.838;2024-03-02T02:59:42;2.30;;;0.20;;
55879;SDS011;41802;51.564;-1.838;2024-03-02T03:02:09;2.87;;;0.20;;
55879;SDS011;41802;51.564;-1.838;2024-03-02T03:04:36;9.88;;;0.35;;
55879;SDS011;41802;51.564;-1.838;2024-03-02T03:07:02;4.40;;;0.20;;
55879;SDS011;41802;51.564;-1.838;2024-03-02T03:09:33;2.25;;;0.20;;
55879;SDS011;41802;51.564;-1.838;2024-03-02T03:11:59;1.67;;;0.17;;
55879;SDS011;41802;51.564;-1.838;2024-03-02T03:14:27;2.27;;;0.10;;
55879;SDS011;41802;51.564;-1.838;2024-03-02T03:16:54;2.08;;;0.10;;
55879;SDS011;41802;51.564;-1.838;2024-03-02T03:19:20;1.30;;;0.17;;
55879;SDS011;41802;51.564;-1.838;2024-03-02T03:21:46;0.95;;;0.20;;
55879;SDS011;41802;51.564;-1.838;2024-03-02T03:24:13;6.45;;;0.20;;
55879;SDS011;41802;51.564;-1.838;2024-03-02T03:26:39;1.60;;;0.10;;
55879;SDS011;41802;51.564;-1.838;2024-03-02T03:29:06;1.42;;;0.10;;
55879;SDS011;41802;51.564;-1.838;2024-03-02T03:31:34;3.05;;;0.20;;
55879;SDS011;41802;51.564;-1.838;2024-03-02T03:34:00;2.10;;;0.20;;
55879;SDS011;41802;51.564;-1.838;2024-03-02T03:36:27;1.30;;;0.20;;
55879;SDS011;41802;51.564;-1.838;2024-03-02T03:38:53;1.70;;;0.20;;
55879;SDS011;41802;51.564;-1.838;2024-03-02T03:41:20;2.50;;;0.10;;
55879;SDS011;41802;51.564;-1.838;2024-03-02T03:43:46;1.77;;;0.20;;
55879;SDS011;41802;51.564;-1.838;2024-03-02T03:46:13;1.23;;;0.10;;
55879;SDS011;41802;51.564;-1.838;2024-03-02T03:48:40;1.33;;;0.20;;
55879;SDS011;41802;51.564;-1.838;2024-03-02T03:51:07;2.13;;;0.20;;
55879;SDS011;41802;51.564;-1.838;2024-03-02T03:53:33;2.90;;;0.20;;
55879;SDS011;41802;51.564;-1.838;2024-03-02T03:56:00;1.80;;;0.20;;
55879;SDS011;41802;51.564;-1.838;2024-03-02T03:58:26;2.80;;;0.10;;
55879;SDS011;41802;51.564;-1.838;2024-03-02T04:00:53;2.20;;;0.10;;
55879;SDS011;41802;51.564;-1.838;2024-03-02T04:03:26;1.50;;;0.10;;
55879;SDS011;41802;51.564;-1.838;2024-03-02T04:05:54;1.20;;;0.10;;
55879;SDS011;41802;51.564;-1.838;2024-03-02T04:08:21;1.95;;;0.20;;
55879;SDS011;41802;51.564;-1.838;2024-03-02T04:10:47;2.45;;;0.30;;
55879;SDS011;41802;51.564;-1.838;2024-03-02T04:13:13;3.33;;;0.20;;
55879;SDS011;41802;51.564;-1.838;2024-03-02T04:15:40;1.27;;;0.10;;
55879;SDS011;41802;51.564;-1.838;2024-03-02T04:18:06;1.20;;;0.10;;
55879;SDS011;41802;51.564;-1.838;2024-03-02T04:20:33;1.65;;;0.10;;
55879;SDS011;41802;51.564;-1.838;2024-03-02T04:23:01;2.25;;;0.10;;
55879;SDS011;41802;51.564;-1.838;2024-03-02T04:25:27;1.30;;;0.10;;
55879;SDS011;41802;51.564;-1.838;2024-03-02T04:27:56;1.23;;;0.10;;
55879;SDS011;41802;51.564;-1.838;2024-03-02T04:30:23;1.35;;;0.10;;
55879;SDS011;41802;51.564;-1.838;2024-03-02T04:32:50;2.53;;;0.20;;
55879;SDS011;41802;51.564;-1.838;2024-03-02T04:35:16;2.42;;;0.20;;
55879;SDS011;41802;51.564;-1.838;2024-03-02T04:37:43;1.52;;;0.10;;
55879;SDS011;41802;51.564;-1.838;2024-03-02T04:40:12;1.87;;;0.20;;
55879;SDS011;41802;51.564;-1.838;2024-03-02T04:42:38;2.85;;;0.28;;
55879;SDS011;41802;51.564;-1.838;2024-03-02T04:45:05;2.88;;;0.20;;
55879;SDS011;41802;51.564;-1.838;2024-03-02T04:47:32;3.70;;;0.30;;
55879;SDS011;41802;51.564;-1.838;2024-03-02T04:49:58;2.95;;;0.30;;
55879;SDS011;41802;51.564;-1.838;2024-03-02T04:52:25;5.10;;;0.40;;
55879;SDS011;41802;51.564;-1.838;2024-03-02T04:54:51;7.38;;;0.50;;
55879;SDS011;41802;51.564;-1.838;2024-03-02T04:57:51;4.03;;;0.50;;
55879;SDS011;41802;51.564;-1.838;2024-03-02T05:00:19;8.02;;;0.75;;
55879;SDS011;41802;51.564;-1.838;2024-03-02T05:02:46;4.55;;;0.38;;
55879;SDS011;41802;51.564;-1.838;2024-03-02T05:05:12;7.13;;;0.50;;
55879;SDS011;41802;51.564;-1.838;2024-03-02T05:07:40;3.33;;;0.30;;
55879;SDS011;41802;51.564;-1.838;2024-03-02T05:10:07;4.68;;;0.60;;
55879;SDS011;41802;51.564;-1.838;2024-03-02T05:12:34;9.45;;;0.70;;
55879;SDS011;41802;51.564;-1.838;2024-03-02T05:15:23;5.38;;;0.50;;
55879;SDS011;41802;51.564;-1.838;2024-03-02T05:17:49;4.37;;;0.33;;
55879;SDS011;41802;51.564;-1.838;2024-03-02T05:20:16;9.25;;;0.50;;
55879;SDS011;41802;51.564;-1.838;2024-03-02T05:22:42;7.38;;;0.45;;
55879;SDS011;41802;51.564;-1.838;2024-03-02T05:25:09;4.15;;;0.30;;
55879;SDS011;41802;51.564;-1.838;2024-03-02T05:27:36;6.07;;;0.30;;
55879;SDS011;41802;51.564;-1.838;2024-03-02T05:30:02;9.93;;;0.70;;
55879;SDS011;41802;51.564;-1.838;2024-03-02T05:32:32;4.22;;;0.28;;
55879;SDS011;41802;51.564;-1.838;2024-03-02T05:34:59;5.30;;;0.30;;
55879;SDS011;41802;51.564;-1.838;2024-03-02T05:37:25;10.48;;;0.50;;
55879;SDS011;41802;51.564;-1.838;2024-03-02T05:39:52;9.38;;;0.50;;
55879;SDS011;41802;51.564;-1.838;2024-03-02T05:42:19;7.33;;;0.40;;
55879;SDS011;41802;51.564;-1.838;2024-03-02T05:44:45;3.47;;;0.40;;
55879;SDS011;41802;51.564;-1.838;2024-03-02T05:47:13;8.13;;;0.47;;
55879;SDS011;41802;51.564;-1.838;2024-03-02T05:49:40;5.80;;;0.50;;
55879;SDS011;41802;51.564;-1.838;2024-03-02T05:52:08;4.07;;;0.43;;
55879;SDS011;41802;51.564;-1.838;2024-03-02T05:54:34;5.83;;;0.50;;
55879;SDS011;41802;51.564;-1.838;2024-03-02T05:57:01;3.90;;;0.30;;
55879;SDS011;41802;51.564;-1.838;2024-03-02T05:59:42;9.80;;;0.50;;
55879;SDS011;41802;51.564;-1.838;2024-03-02T06:02:08;4.47;;;0.57;;
55879;SDS011;41802;51.564;-1.838;2024-03-02T06:04:35;6.68;;;0.40;;
55879;SDS011;41802;51.564;-1.838;2024-03-02T06:07:03;3.20;;;0.23;;
55879;SDS011;41802;51.564;-1.838;2024-03-02T06:09:29;4.28;;;0.20;;
55879;SDS011;41802;51.564;-1.838;2024-03-02T06:11:56;8.50;;;0.70;;
55879;SDS011;41802;51.564;-1.838;2024-03-02T06:14:22;3.90;;;0.30;;
55879;SDS011;41802;51.564;-1.838;2024-03-02T06:16:48;5.22;;;0.40;;
55879;SDS011;41802;51.564;-1.838;2024-03-02T06:19:15;3.70;;;0.20;;
55879;SDS011;41802;51.564;-1.838;2024-03-02T06:21:42;4.65;;;0.47;;
55879;SDS011;41802;51.564;-1.838;2024-03-02T06:24:09;4.45;;;0.70;;
55879;SDS011;41802;51.564;-1.838;2024-03-02T06:26:36;4.22;;;0.50;;
55879;SDS011;41802;51.564;-1.838;2024-03-02T06:29:02;3.35;;;0.40;;
55879;SDS011;41802;51.564;-1.838;2024-03-02T06:31:29;6.67;;;1.23;;
55879;SDS011;41802;51.564;-1.838;2024-03-02T06:33:58;3.38;;;0.40;;
55879;SDS011;41802;51.564;-1.838;2024-03-02T06:36:24;5.00;;;0.50;;
55879;SDS011;41802;51.564;-1.838;2024-03-02T06:38:51;5.72;;;0.88;;
55879;SDS011;41802;51.564;-1.838;2024-03-02T06:41:19;4.20;;;0.52;;
55879;SDS011;41802;51.564;-1.838;2024-03-02T06:43:45;3.63;;;0.60;;
55879;SDS011;41802;51.564;-1.838;2024-03-02T06:46:12;5.22;;;0.60;;
55879;SDS011;41802;51.564;-1.838;2024-03-02T06:48:40;4.78;;;0.60;;
55879;SDS011;41802;51.564;-1.838;2024-03-02T06:51:06;4.05;;;0.43;;
55879;SDS011;41802;51.564;-1.838;2024-03-02T06:53:33;3.55;;;0.45;;
55879;SDS011;41802;51.564;-1.838;2024-03-02T06:55:59;3.40;;;0.47;;
55879;SDS011;41802;51.564;-1.838;2024-03-02T06:58:27;3.53;;;0.30;;
55879;SDS011;41802;51.564;-1.838;2024-03-02T07:00:54;4.43;;;0.68;;
55879;SDS011;41802;51.564;-1.838;2024-03-02T07:03:20;4.25;;;0.77;;
55879;SDS011;41802;51.564;-1.838;2024-03-02T07:05:51;5.43;;;0.90;;
55879;SDS011;41802;51.564;-1.838;2024-03-02T07:08:18;7.33;;;1.23;;
55879;SDS011;41802;51.564;-1.838;2024-03-02T07:10:44;6.22;;;1.15;;
55879;SDS011;41802;51.564;-1.838;2024-03-02T07:13:12;5.38;;;1.08;;
55879;SDS011;41802;51.564;-1.838;2024-03-02T07:15:40;6.05;;;1.33;;
55879;SDS011;41802;51.564;-1.838;2024-03-02T07:18:31;4.13;;;0.68;;
55879;SDS011;41802;51.564;-1.838;2024-03-02T07:20:58;5.00;;;0.70;;
55879;SDS011;41802;51.564;-1.838;2024-03-02T07:23:26;4.30;;;0.68;;
55879;SDS011;41802;51.564;-1.838;2024-03-02T07:25:52;3.70;;;0.52;;
55879;SDS011;41802;51.564;-1.838;2024-03-02T07:28:21;4.65;;;0.60;;
55879;SDS011;41802;51.564;-1.838;2024-03-02T07:30:50;4.53;;;0.57;;
55879;SDS011;41802;51.564;-1.838;2024-03-02T07:33:24;4.30;;;0.60;;
55879;SDS011;41802;51.564;-1.838;2024-03-02T07:35:50;4.50;;;0.60;;
55879;SDS011;41802;51.564;-1.838;2024-03-02T07:38:17;3.25;;;0.50;;
55879;SDS011;41802;51.564;-1.838;2024-03-02T07:40:43;4.43;;;0.63;;
55879;SDS011;41802;51.564;-1.838;2024-03-02T07:43:10;3.45;;;0.52;;
55879;SDS011;41802;51.564;-1.838;2024-03-02T07:45:36;2.77;;;0.30;;
55879;SDS011;41802;51.564;-1.838;2024-03-02T07:48:06;2.40;;;0.30;;
55879;SDS011;41802;51.564;-1.838;2024-03-02T07:50:36;2.38;;;0.30;;
55879;SDS011;41802;51.564;-1.838;2024-03-02T07:53:04;2.97;;;0.20;;
55879;SDS011;41802;51.564;-1.838;2024-03-02T07:55:31;2.47;;;0.20;;
55879;SDS011;41802;51.564;-1.838;2024-03-02T07:57:57;2.20;;;0.30;;
55879;SDS011;41802;51.564;-1.838;2024-03-02T08:00:25;3.05;;;0.43;;
55879;SDS011;41802;51.564;-1.838;2024-03-02T08:02:53;3.60;;;0.43;;
55879;SDS011;41802;51.564;-1.838;2024-03-02T08:05:21;3.65;;;0.40;;
55879;SDS011;41802;51.564;-1.838;2024-03-02T08:07:47;4.50;;;0.60;;
55879;SDS011;41802;51.564;-1.838;2024-03-02T08:10:17;3.97;;;0.30;;
55879;SDS011;41802;51.564;-1.838;2024-03-02T08:12:44;7.25;;;1.77;;
55879;SDS011;41802;51.564;-1.838;2024-03-02T08:15:13;3.65;;;0.47;;
55879;SDS011;41802;51.564;-1.838;2024-03-02T08:17:41;3.63;;;0.50;;
55879;SDS011;41802;51.564;-1.838;2024-03-02T08:20:10;3.95;;;0.80;;
55879;SDS011;41802;51.564;-1.838;2024-03-02T08:22:39;2.83;;;0.40;;
55879;SDS011;41802;51.564;-1.838;2024-03-02T08:25:06;3.45;;;0.43;;
55879;SDS011;41802;51.564;-1.838;2024-03-02T08:27:33;4.00;;;0.68;;
55879;SDS011;41802;51.564;-1.838;2024-03-02T08:29:59;3.72;;;0.63;;
55879;SDS011;41802;51.564;-1.838;2024-03-02T08:32:26;3.63;;;0.50;;
55879;SDS011;41802;51.564;-1.838;2024-03-02T08:34:52;3.23;;;0.43;;
55879;SDS011;41802;51.564;-1.838;2024-03-02T08:37:19;3.42;;;0.40;;
55879;SDS011;41802;51.564;-1.838;2024-03-02T08:39:46;3.58;;;0.50;;
55879;SDS011;41802;51.564;-1.838;2024-03-02T08:42:13;3.70;;;0.30;;
55879;SDS011;41802;51.564;-1.838;2024-03-02T08:44:39;2.47;;;0.40;;
55879;SDS011;41802;51.564;-1.838;2024-03-02T08:47:06;2.67;;;0.30;;
55879;SDS011;41802;51.564;-1.838;2024-03-02T08:49:32;4.65;;;0.60;;
55879;SDS011;41802;51.564;-1.838;2024-03-02T08:51:59;3.75;;;0.50;;
55879;SDS011;41802;51.564;-1.838;2024-03-02T08:54:25;3.63;;;0.60;;
55879;SDS011;41802;51.564;-1.838;2024-03-02T08:56:54;4.20;;;0.68;;
55879;SDS011;41802;51.564;-1.838;2024-03-02T08:59:23;3.30;;;0.60;;
55879;SDS011;41802;51.564;-1.838;2024-03-02T09:01:50;4.15;;;0.70;;
55879;SDS011;41802;51.564;-1.838;2024-03-02T09:04:16;3.60;;;0.75;;
55879;SDS011;41802;51.564;-1.838;2024-03-02T09:06:43;4.22;;;0.77;;
55879;SDS011;41802;51.564;-1.838;2024-03-02T09:09:09;3.33;;;0.57;;
55879;SDS011;41802;51.564;-1.838;2024-03-02T09:11:36;3.53;;;0.40;;
55879;SDS011;41802;51.564;-1.838;2024-03-02T09:14:04;3.60;;;0.68;;
55879;SDS011;41802;51.564;-1.838;2024-03-02T09:16:31;3.70;;;0.70;;
55879;SDS011;41802;51.564;-1.838;2024-03-02T09:18:58;3.75;;;0.77;;
55879;SDS011;41802;51.564;-1.838;2024-03-02T09:21:25;3.55;;;0.73;;
55879;SDS011;41802;51.564;-1.838;2024-03-02T09:23:52;3.30;;;0.60;;
55879;SDS011;41802;51.564;-1.838;2024-03-02T09:26:18;3.90;;;0.60;;
55879;SDS011;41802;51.564;-1.838;2024-03-02T09:28:45;3.63;;;0.45;;
55879;SDS011;41802;51.564;-1.838;2024-03-02T09:31:13;3.83;;;0.60;;
55879;SDS011;41802;51.564;-1.838;2024-03-02T09:33:40;3.80;;;0.80;;
55879;SDS011;41802;51.564;-1.838;2024-03-02T09:36:16;3.80;;;0.70;;
55879;SDS011;41802;51.564;-1.838;2024-03-02T09:38:42;4.15;;;0.82;;
55879;SDS011;41802;51.564;-1.838;2024-03-02T09:41:09;3.63;;;0.70;;
55879;SDS011;41802;51.564;-1.838;2024-03-02T09:43:36;3.83;;;0.75;;
55879;SDS011;41802;51.564;-1.838;2024-03-02T09:46:03;4.10;;;0.98;;
55879;SDS011;41802;51.564;-1.838;2024-03-02T09:48:31;4.33;;;0.83;;
55879;SDS011;41802;51.564;-1.838;2024-03-02T09:50:57;3.25;;;0.55;;
55879;SDS011;41802;51.564;-1.838;2024-03-02T09:53:25;3.53;;;0.50;;
55879;SDS011;41802;51.564;-1.838;2024-03-02T09:55:53;3.10;;;0.40;;
55879;SDS011;41802;51.564;-1.838;2024-03-02T09:58:21;3.90;;;0.47;;
55879;SDS011;41802;51.564;-1.838;2024-03-02T10:00:48;3.10;;;0.40;;
55879;SDS011;41802;51.564;-1.838;2024-03-02T10:03:14;4.22;;;0.68;;
55879;SDS011;41802;51.564;-1.838;2024-03-02T10:05:43;3.15;;;0.40;;
55879;SDS011;41802;51.564;-1.838;2024-03-02T10:08:09;3.72;;;0.40;;
55879;SDS011;41802;51.564;-1.838;2024-03-02T10:10:36;4.93;;;0.50;;
55879;SDS011;41802;51.564;-1.838;2024-03-02T10:13:05;4.20;;;0.57;;
55879;SDS011;41802;51.564;-1.838;2024-03-02T10:15:32;4.13;;;0.45;;
55879;SDS011;41802;51.564;-1.838;2024-03-02T10:18:00;4.47;;;0.73;;
55879;SDS011;41802;51.564;-1.838;2024-03-02T10:20:26;4.55;;;0.75;;
55879;SDS011;41802;51.564;-1.838;2024-03-02T10:22:55;6.03;;;1.40;;
55879;SDS011;41802;51.564;-1.838;2024-03-02T10:25:28;5.63;;;1.17;;
55879;SDS011;41802;51.564;-1.838;2024-03-02T10:27:56;6.05;;;1.10;;
55879;SDS011;41802;51.564;-1.838;2024-03-02T10:30:23;6.95;;;1.15;;
55879;SDS011;41802;51.564;-1.838;2024-03-02T10:32:49;5.50;;;1.35;;
55879;SDS011;41802;51.564;-1.838;2024-03-02T10:35:16;6.18;;;1.40;;
55879;SDS011;41802;51.564;-1.838;2024-03-02T10:37:44;6.63;;;1.80;;
55879;SDS011;41802;51.564;-1.838;2024-03-02T10:40:13;7.45;;;2.10;;
55879;SDS011;41802;51.564;-1.838;2024-03-02T10:42:39;7.10;;;1.60;;
55879;SDS011;41802;51.564;-1.838;2024-03-02T10:45:07;5.67;;;1.17;;
55879;SDS011;41802;51.564;-1.838;2024-03-02T10:47:36;8.02;;;2.13;;
55879;SDS011;41802;51.564;-1.838;2024-03-02T10:50:04;7.95;;;2.15;;
55879;SDS011;41802;51.564;-1.838;2024-03-02T10:52:33;7.45;;;1.77;;
55879;SDS011;41802;51.564;-1.838;2024-03-02T10:55:01;7.50;;;2.03;;
55879;SDS011;41802;51.564;-1.838;2024-03-02T10:57:35;5.83;;;1.33;;
55879;SDS011;41802;51.564;-1.838;2024-03-02T11:00:07;8.52;;;2.45;;
55879;SDS011;41802;51.564;-1.838;2024-03-02T11:02:41;8.88;;;1.63;;
55879;SDS011;41802;51.564;-1.838;2024-03-02T11:05:08;7.25;;;1.85;;
55879;SDS011;41802;51.564;-1.838;2024-03-02T11:07:37;10.10;;;1.90;;
55879;SDS011;41802;51.564;-1.838;2024-03-02T11:10:04;7.23;;;2.07;;
55879;SDS011;41802;51.564;-1.838;2024-03-02T11:12:36;6.85;;;1.38;;
55879;SDS011;41802;51.564;-1.838;2024-03-02T11:15:03;6.97;;;2.00;;
55879;SDS011;41802;51.564;-1.838;2024-03-02T11:17:31;7.70;;;2.17;;
55879;SDS011;41802;51.564;-1.838;2024-03-02T11:19:57;7.72;;;2.40;;
55879;SDS011;41802;51.564;-1.838;2024-03-02T11:22:24;6.40;;;1.80;;
55879;SDS011;41802;51.564;-1.838;2024-03-02T11:24:52;7.53;;;2.05;;
55879;SDS011;41802;51.564;-1.838;2024-03-02T11:30:01;6.10;;;1.55;;
55879;SDS011;41802;51.564;-1.838;2024-03-02T11:32:28;6.43;;;1.80;;
55879;SDS011;41802;51.564;-1.838;2024-03-02T11:34:55;5.67;;;1.70;;
55879;SDS011;41802;51.564;-1.838;2024-03-02T11:37:21;7.10;;;1.77;;
55879;SDS011;41802;51.564;-1.838;2024-03-02T11:39:49;6.00;;;1.80;;
55879;SDS011;41802;51.564;-1.838;2024-03-02T11:42:15;5.07;;;1.30;;
55879;SDS011;41802;51.564;-1.838;2024-03-02T11:44:42;4.38;;;1.27;;
55879;SDS011;41802;51.564;-1.838;2024-03-02T11:47:11;4.23;;;0.93;;
55879;SDS011;41802;51.564;-1.838;2024-03-02T11:49:41;4.38;;;0.95;;
55879;SDS011;41802;51.564;-1.838;2024-03-02T11:52:11;5.07;;;1.10;;
55879;SDS011;41802;51.564;-1.838;2024-03-02T11:54:40;4.35;;;0.80;;
55879;SDS011;41802;51.564;-1.838;2024-03-02T11:57:11;5.53;;;0.93;;
55879;SDS011;41802;51.564;-1.838;2024-03-02T11:59:38;4.37;;;1.13;;
55879;SDS011;41802;51.564;-1.838;2024-03-02T12:02:05;6.82;;;1.25;;
55879;SDS011;41802;51.564;-1.838;2024-03-02T12:04:33;3.95;;;1.00;;
55879;SDS011;41802;51.564;-1.838;2024-03-02T12:07:00;4.90;;;1.25;;
55879;SDS011;41802;51.564;-1.838;2024-03-02T12:09:28;4.57;;;1.20;;
55879;SDS011;41802;51.564;-1.838;2024-03-02T12:12:01;3.97;;;0.90;;
55879;SDS011;41802;51.564;-1.838;2024-03-02T12:14:28;4.38;;;1.00;;
55879;SDS011;41802;51.564;-1.838;2024-03-02T12:16:56;4.38;;;1.00;;
55879;SDS011;41802;51.564;-1.838;2024-03-02T12:19:24;4.20;;;1.08;;
55879;SDS011;41802;51.564;-1.838;2024-03-02T12:21:52;4.40;;;1.15;;
55879;SDS011;41802;51.564;-1.838;2024-03-02T12:24:20;3.80;;;0.87;;
55879;SDS011;41802;51.564;-1.838;2024-03-02T12:26:47;4.00;;;1.20;;
55879;SDS011;41802;51.564;-1.838;2024-03-02T12:29:14;4.40;;;1.20;;
55879;SDS011;41802;51.564;-1.838;2024-03-02T12:31:41;4.30;;;1.02;;
55879;SDS011;41802;51.564;-1.838;2024-03-02T12:34:12;3.70;;;0.85;;
55879;SDS011;41802;51.564;-1.838;2024-03-02T12:36:41;3.60;;;0.90;;
55879;SDS011;41802;51.564;-1.838;2024-03-02T12:39:09;4.00;;;0.80;;
55879;SDS011;41802;51.564;-1.838;2024-03-02T12:41:36;4.23;;;0.80;;
55879;SDS011;41802;51.564;-1.838;2024-03-02T12:44:03;3.30;;;0.80;;
55879;SDS011;41802;51.564;-1.838;2024-03-02T12:46:30;4.30;;;0.77;;
55879;SDS011;41802;51.564;-1.838;2024-03-02T12:48:57;3.78;;;0.80;;
55879;SDS011;41802;51.564;-1.838;2024-03-02T12:51:24;5.47;;;1.10;;
55879;SDS011;41802;51.564;-1.838;2024-03-02T12:53:53;4.40;;;0.88;;
55879;SDS011;41802;51.564;-1.838;2024-03-02T12:56:20;4.35;;;0.70;;
55879;SDS011;41802;51.564;-1.838;2024-03-02T12:58:47;3.20;;;0.60;;
55879;SDS011;41802;51.564;-1.838;2024-03-02T13:01:14;4.25;;;0.90;;
55879;SDS011;41802;51.564;-1.838;2024-03-02T13:03:44;3.80;;;0.90;;
55879;SDS011;41802;51.564;-1.838;2024-03-02T13:06:10;4.22;;;0.85;;
55879;SDS011;41802;51.564;-1.838;2024-03-02T13:08:37;3.60;;;0.77;;
55879;SDS011;41802;51.564;-1.838;2024-03-02T13:11:04;4.05;;;1.00;;
55879;SDS011;41802;51.564;-1.838;2024-03-02T13:13:33;3.85;;;1.20;;
55879;SDS011;41802;51.564;-1.838;2024-03-02T13:16:00;3.60;;;0.73;;
55879;SDS011;41802;51.564;-1.838;2024-03-02T13:18:28;3.45;;;0.50;;
55879;SDS011;41802;51.564;-1.838;2024-03-02T13:20:56;3.20;;;0.70;;
55879;SDS011;41802;51.564;-1.838;2024-03-02T13:23:22;3.33;;;0.60;;
55879;SDS011;41802;51.564;-1.838;2024-03-02T13:25:49;2.60;;;0.50;;
55879;SDS011;41802;51.564;-1.838;2024-03-02T13:28:15;2.27;;;0.40;;
55879;SDS011;41802;51.564;-1.838;2024-03-02T13:30:44;2.13;;;0.30;;
55879;SDS011;41802;51.564;-1.838;2024-03-02T13:33:11;2.10;;;0.30;;
55879;SDS011;41802;51.564;-1.838;2024-03-02T13:35:37;2.13;;;0.30;;
55879;SDS011;41802;51.564;-1.838;2024-03-02T13:38:04;2.92;;;0.40;;
55879;SDS011;41802;51.564;-1.838;2024-03-02T13:40:30;2.73;;;0.40;;
55879;SDS011;41802;51.564;-1.838;2024-03-02T13:43:01;2.30;;;0.40;;
55879;SDS011;41802;51.564;-1.838;2024-03-02T13:45:27;3.25;;;0.52;;
55879;SDS011;41802;51.564;-1.838;2024-03-02T13:47:55;2.78;;;0.50;;
55879;SDS011;41802;51.564;-1.838;2024-03-02T13:50:22;2.90;;;0.50;;
55879;SDS011;41802;51.564;-1.838;2024-03-02T13:52:48;4.40;;;0.73;;
55879;SDS011;41802;51.564;-1.838;2024-03-02T13:55:15;3.03;;;0.40;;
55879;SDS011;41802;51.564;-1.838;2024-03-02T13:57:41;2.63;;;0.40;;
55879;SDS011;41802;51.564;-1.838;2024-03-02T14:00:08;3.03;;;0.40;;
55879;SDS011;41802;51.564;-1.838;2024-03-02T14:02:39;3.43;;;0.60;;
55879;SDS011;41802;51.564;-1.838;2024-03-02T14:05:08;3.33;;;0.50;;
55879;SDS011;41802;51.564;-1.838;2024-03-02T14:07:37;2.87;;;0.60;;
55879;SDS011;41802;51.564;-1.838;2024-03-02T14:10:03;3.30;;;0.77;;
55879;SDS011;41802;51.564;-1.838;2024-03-02T14:12:30;3.60;;;0.90;;
55879;SDS011;41802;51.564;-1.838;2024-03-02T14:14:57;3.47;;;0.85;;
55879;SDS011;41802;51.564;-1.838;2024-03-02T14:17:24;4.57;;;0.85;;
55879;SDS011;41802;51.564;-1.838;2024-03-02T14:19:50;3.50;;;0.70;;
55879;SDS011;41802;51.564;-1.838;2024-03-02T14:22:20;3.88;;;0.80;;
55879;SDS011;41802;51.564;-1.838;2024-03-02T14:24:47;3.85;;;0.80;;
55879;SDS011;41802;51.564;-1.838;2024-03-02T14:27:14;4.18;;;0.80;;
55879;SDS011;41802;51.564;-1.838;2024-03-02T14:29:42;4.03;;;1.00;;
55879;SDS011;41802;51.564;-1.838;2024-03-02T14:32:08;3.70;;;0.80;;
55879;SDS011;41802;51.564;-1.838;2024-03-02T14:34:35;3.92;;;1.00;;
55879;SDS011;41802;51.564;-1.838;2024-03-02T14:37:02;3.72;;;0.90;;